Time;durP1;ratioP1;P1;durP2;ratioP2;P2;SDS_P1;SDS_P2;PMS_P1;PMS_P2;Temp;Humidity;BMP_temperature;BMP_pressure;BME280_temperature;BME280_humidity;BME280_pressure;Samples;Min_cycle;Max_cycle;Signal;HPM_P1;HPM_P2
2022/01/08 00:01:46;;;;;;;6.47;6.07;;;;;;;;;;7330864;19;161843;-14
2022/01/08 00:04:17;;;;;;;6.07;5.57;;;;;;;;;;7322007;19;162382;-14
2022/01/08 00:06:48;;;;;;;5.93;5.53;;;;;;;;;;7327424;19;153981;-14
2022/01/08 00:09:22;;;;;;;5.90;5.50;;;;;;;;;;7324611;19;153593;-14
2022/01/08 00:11:54;;;;;;;6.15;5.55;;;;;;;;;;7320557;19;161857;-13
2022/01/08 00:14:25;;;;;;;5.88;5.47;;;;;;;;;;7324196;19;162362;-14
2022/01/08 00:16:58;;;;;;;5.55;5.15;;;;;;;;;;7337240;19;154317;-15
2022/01/08 00:19:29;;;;;;;5.70;5.30;;;;;;;;;;7332633;19;153709;-15
2022/01/08 00:22:00;;;;;;;6.30;5.90;;;;;;;;;;7330869;19;161998;-14
2022/01/08 00:24:34;;;;;;;5.82;5.28;;;;;;;;;;7328654;19;162777;-15
2022/01/08 00:27:07;;;;;;;5.47;5.13;;;;;;;;;;7337069;19;154156;-15
2022/01/08 00:29:39;;;;;;;5.80;5.30;;;;;;;;;;7331704;19;153574;-14
2022/01/08 00:32:13;;;;;;;5.53;5.13;;;;;;;;;;7331471;19;162209;-14
2022/01/08 00:34:44;;;;;;;5.50;5.10;;;;;;;;;;7333246;19;162794;-14
2022/01/08 00:37:16;;;;;;;5.32;5.00;;;;;;;;;;7328372;19;154004;-14
2022/01/08 00:39:49;;;;;;;3.53;3.33;;;;;;;;;;7336816;19;153650;-14
2022/01/08 00:42:21;;;;;;;2.80;2.60;;;;;;;;;;7334875;19;161781;-16
2022/01/08 00:44:52;;;;;;;3.38;2.80;;;;;;;;;;7333926;19;162721;-13
2022/01/08 00:47:23;;;;;;;3.65;3.35;;;;;;;;;;7337070;19;154045;-12
2022/01/08 10:39:05;;;;;;;4.15;3.85;;;;;;;;;;7372622;19;132640;-15
2022/01/08 10:41:42;;;;;;;4.03;3.55;;;;;;;;;;7366471;19;153439;-16
2022/01/08 10:44:16;;;;;;;3.45;3.25;;;;;;;;;;7367337;19;161866;-16
2022/01/08 10:46:56;;;;;;;4.32;3.97;;;;;;;;;;7367000;19;162357;-15
2022/01/08 10:49:32;;;;;;;3.50;3.30;;;;;;;;;;7366852;19;154094;-19
2022/01/08 10:52:07;;;;;;;3.00;2.80;;;;;;;;;;7366501;19;153505;-14
2022/01/08 10:54:42;;;;;;;3.17;2.97;;;;;;;;;;7367556;19;161944;-15
2022/01/08 10:57:14;;;;;;;3.65;3.45;;;;;;;;;;7368622;19;162463;-15
2022/01/08 10:59:48;;;;;;;3.47;3.28;;;;;;;;;;7367180;19;154096;-14
2022/01/08 11:02:19;;;;;;;7.22;3.13;;;;;;;;;;7366164;19;153546;-15
2022/01/08 11:04:52;;;;;;;3.30;3.10;;;;;;;;;;7366802;19;161973;-15
2022/01/08 11:07:25;;;;;;;3.13;2.92;;;;;;;;;;7366236;19;162897;-15
2022/01/08 11:10:00;;;;;;;;;;;;;;;;;;7365574;19;154032;-14
2022/01/08 11:12:36;;;;;;;3.20;3.00;;;;;;;;;;7366907;19;153530;-15
2022/01/08 11:15:36;;;;;;;3.30;3.10;;;;;;;;;;7366669;19;161882;-13
2022/01/08 11:18:07;;;;;;;2.80;2.70;;;;;;;;;;7365839;19;162622;-13
2022/01/08 11:20:58;;;;;;;3.38;3.13;;;;;;;;;;7367916;19;154154;-13
2022/01/08 11:23:35;;;;;;;3.40;3.20;;;;;;;;;;7366996;19;154137;-13
2022/01/08 11:26:13;;;;;;;3.00;2.90;;;;;;;;;;7360616;19;162008;-14
2022/01/08 11:28:49;;;;;;;3.35;3.15;;;;;;;;;;7367154;19;162211;-13
2022/01/08 11:31:23;;;;;;;3.50;3.20;;;;;;;;;;7367087;19;153990;-13
2022/01/08 11:34:00;;;;;;;3.20;3.00;;;;;;;;;;7364061;19;153887;-14
2022/01/08 11:36:33;;;;;;;3.13;2.92;;;;;;;;;;7364550;19;161803;-14
2022/01/08 11:39:08;;;;;;;3.00;2.80;;;;;;;;;;7345364;19;162480;-13
2022/01/08 11:41:43;;;;;;;3.08;2.88;;;;;;;;;;7337118;19;153686;-13
2022/01/08 11:44:15;;;;;;;3.20;3.00;;;;;;;;;;7335537;19;153663;-14
2022/01/08 11:46:48;;;;;;;3.00;2.80;;;;;;;;;;7336098;19;161840;-13
2022/01/08 11:49:19;;;;;;;;;;;;;;;;;;7337424;19;162357;-14
2022/01/08 11:52:10;;;;;;;3.20;3.00;;;;;;;;;;7337870;19;154152;-14
2022/01/08 11:54:44;;;;;;;3.10;2.90;;;;;;;;;;7335395;19;153614;-14
2022/01/08 11:57:25;;;;;;;3.08;2.88;;;;;;;;;;7335710;19;161934;-14
2022/01/08 11:59:59;;;;;;;3.00;2.80;;;;;;;;;;7337109;19;162407;-14
2022/01/08 12:02:39;;;;;;;2.45;2.35;;;;;;;;;;7334162;19;154227;-13
2022/01/08 12:05:13;;;;;;;2.67;2.58;;;;;;;;;;7335940;19;153547;-14
2022/01/08 12:07:47;;;;;;;2.75;2.58;;;;;;;;;;7336091;19;162022;-13
2022/01/08 12:10:23;;;;;;;2.60;2.50;;;;;;;;;;7333439;19;162362;-14
2022/01/08 12:13:02;;;;;;;2.40;2.30;;;;;;;;;;7334993;19;154157;-14
2022/01/08 12:15:50;;;;;;;2.70;2.60;;;;;;;;;;7334990;19;153674;-14
2022/01/08 12:18:27;;;;;;;2.53;2.42;;;;;;;;;;7332304;19;161794;-14
2022/01/08 12:20:59;;;;;;;2.95;2.75;;;;;;;;;;7334632;19;162591;-14
2022/01/08 12:23:36;;;;;;;2.80;2.60;;;;;;;;;;7335788;19;154161;-15
2022/01/08 12:26:11;;;;;;;2.30;2.20;;;;;;;;;;7336563;19;153336;-14
2022/01/08 12:29:01;;;;;;;2.78;2.58;;;;;;;;;;7333760;19;161996;-15
2022/01/08 12:31:37;;;;;;;2.50;2.30;;;;;;;;;;7331860;19;162616;-14
2022/01/08 12:34:25;;;;;;;2.55;2.45;;;;;;;;;;7335550;19;154382;-14
2022/01/08 12:36:58;;;;;;;2.50;2.40;;;;;;;;;;7332747;19;153511;-14
2022/01/08 12:39:49;;;;;;;2.50;2.40;;;;;;;;;;7331209;19;162359;-14
2022/01/08 12:42:45;;;;;;;2.53;2.33;;;;;;;;;;7332571;19;162841;-14
2022/01/08 12:45:22;;;;;;;2.30;2.20;;;;;;;;;;7334704;19;154375;-13
2022/01/08 12:47:57;;;;;;;2.70;2.30;;;;;;;;;;7335550;19;153723;-14
2022/01/08 12:50:31;;;;;;;2.60;2.45;;;;;;;;;;7331402;19;162086;-16
2022/01/08 12:53:15;;;;;;;2.40;2.30;;;;;;;;;;7333263;19;162416;-16
2022/01/08 12:56:11;;;;;;;2.33;2.22;;;;;;;;;;7335146;19;153956;-14
2022/01/08 12:58:49;;;;;;;2.00;1.90;;;;;;;;;;7330396;19;153864;-14
2022/01/08 13:01:25;;;;;;;2.38;2.28;;;;;;;;;;7333667;19;162514;-14
2022/01/08 13:03:58;;;;;;;2.42;2.30;;;;;;;;;;7335566;19;162763;-14
2022/01/08 13:06:36;;;;;;;2.38;2.28;;;;;;;;;;7333493;19;154279;-14
2022/01/08 13:09:09;;;;;;;2.28;2.17;;;;;;;;;;7332969;19;153658;-15
2022/01/08 13:11:43;;;;;;;2.47;2.30;;;;;;;;;;7335920;19;161885;-15
2022/01/08 13:14:17;;;;;;;2.20;2.10;;;;;;;;;;7335065;19;162714;-14
2022/01/08 13:16:53;;;;;;;2.33;2.20;;;;;;;;;;7333953;19;153921;-14
2022/01/08 13:19:27;;;;;;;2.20;2.10;;;;;;;;;;7333079;19;153636;-14
2022/01/08 13:22:02;;;;;;;2.08;1.98;;;;;;;;;;7335159;19;161822;-15
2022/01/08 13:24:36;;;;;;;2.05;1.95;;;;;;;;;;7336045;19;163795;-15
2022/01/08 13:27:11;;;;;;;2.10;2.00;;;;;;;;;;7333733;19;153948;-14
2022/01/08 13:29:44;;;;;;;2.40;2.30;;;;;;;;;;7333808;19;153587;-14
2022/01/08 13:32:20;;;;;;;1.88;1.77;;;;;;;;;;7335029;19;162058;-14
2022/01/08 13:34:54;;;;;;;2.05;1.95;;;;;;;;;;7333750;19;162646;-14
2022/01/08 13:37:27;;;;;;;2.30;2.10;;;;;;;;;;7334885;19;153892;-14
2022/01/08 13:40:01;;;;;;;2.00;1.90;;;;;;;;;;7332826;19;153554;-14
2022/01/08 13:42:35;;;;;;;2.05;1.95;;;;;;;;;;7335129;19;162629;-15
2022/01/08 13:45:14;;;;;;;2.15;2.05;;;;;;;;;;7331587;19;162451;-14
2022/01/08 13:47:50;;;;;;;2.10;2.00;;;;;;;;;;7333140;19;154227;-14
2022/01/08 13:50:28;;;;;;;2.30;2.20;;;;;;;;;;7333556;19;153635;-14
2022/01/08 13:53:03;;;;;;;0.90;0.90;;;;;;;;;;7332425;19;162116;-22
2022/01/08 13:55:37;;;;;;;0.65;0.65;;;;;;;;;;7332994;19;162560;-15
2022/01/08 13:58:12;;;;;;;1.92;0.68;;;;;;;;;;7334779;19;154149;-14
2022/01/08 14:00:47;;;;;;;0.70;0.70;;;;;;;;;;7331514;19;153551;-14
2022/01/08 14:03:24;;;;;;;0.90;0.90;;;;;;;;;;7332560;19;162009;-15
2022/01/08 14:05:57;;;;;;;1.60;1.00;;;;;;;;;;7332805;19;162610;-15
2022/01/08 14:08:29;;;;;;;1.02;1.02;;;;;;;;;;7333537;19;153928;-15
2022/01/08 14:11:02;;;;;;;10.63;1.40;;;;;;;;;;7333174;19;153521;-14
2022/01/08 14:13:35;;;;;;;0.95;0.95;;;;;;;;;;7331809;19;162078;-15
2022/01/08 14:16:11;;;;;;;1.30;1.00;;;;;;;;;;7333276;19;162399;-15
2022/01/08 14:18:44;;;;;;;0.85;0.85;;;;;;;;;;7330656;19;154132;-15
2022/01/08 14:21:18;;;;;;;1.00;0.90;;;;;;;;;;7331670;19;153879;-15
2022/01/08 14:23:50;;;;;;;1.00;1.00;;;;;;;;;;7332555;19;162198;-15
2022/01/08 14:26:24;;;;;;;0.73;0.73;;;;;;;;;;7332929;19;162349;-15
2022/01/08 14:29:06;;;;;;;0.90;0.80;;;;;;;;;;7330927;19;153990;-16
2022/01/08 14:31:38;;;;;;;0.75;0.75;;;;;;;;;;7332125;19;153643;-15
2022/01/08 14:34:15;;;;;;;1.33;0.85;;;;;;;;;;7332456;19;162120;-15
2022/01/08 14:36:49;;;;;;;1.35;0.80;;;;;;;;;;7329577;19;162343;-15
2022/01/08 14:39:42;;;;;;;0.80;0.80;;;;;;;;;;7330708;19;154184;-15
2022/01/08 14:42:14;;;;;;;0.88;0.80;;;;;;;;;;7333454;19;153747;-15
2022/01/08 14:44:53;;;;;;;1.13;0.93;;;;;;;;;;7332807;19;163445;-14
2022/01/08 14:47:36;;;;;;;1.55;0.80;;;;;;;;;;7329614;19;162562;-15
2022/01/08 14:50:12;;;;;;;0.70;0.70;;;;;;;;;;7331092;19;153960;-15
2022/01/08 14:52:44;;;;;;;0.70;0.70;;;;;;;;;;7332911;19;153460;-14
2022/01/08 14:55:17;;;;;;;0.60;0.60;;;;;;;;;;7329941;19;161615;-14
2022/01/08 14:57:48;;;;;;;;;;;;;;;;;;7331217;19;162630;-14
2022/01/08 15:00:20;;;;;;;0.70;0.70;;;;;;;;;;7330652;19;154506;-15
2022/01/08 15:02:52;;;;;;;1.60;0.70;;;;;;;;;;7331620;19;153504;-14
2022/01/08 15:05:26;;;;;;;0.60;0.60;;;;;;;;;;7329207;19;161816;-15
2022/01/08 15:07:57;;;;;;;0.68;0.68;;;;;;;;;;7329996;19;162271;-15
2022/01/08 15:10:28;;;;;;;0.60;0.60;;;;;;;;;;7331858;19;153991;-14
2022/01/08 15:13:00;;;;;;;0.55;0.55;;;;;;;;;;7330963;19;153615;-14
2022/01/08 15:15:31;;;;;;;0.50;0.50;;;;;;;;;;7338766;19;162115;-13
2022/01/08 15:18:02;;;;;;;0.60;0.60;;;;;;;;;;7337177;19;162914;-15
2022/01/08 15:20:37;;;;;;;0.60;0.60;;;;;;;;;;7337986;19;154283;-14
2022/01/08 15:23:08;;;;;;;0.50;0.50;;;;;;;;;;7335656;19;153574;-15
2022/01/08 15:25:39;;;;;;;0.50;0.50;;;;;;;;;;7336861;19;162105;-14
2022/01/08 15:28:11;;;;;;;0.60;0.60;;;;;;;;;;7337403;19;162772;-14
2022/01/08 15:30:42;;;;;;;0.60;0.60;;;;;;;;;;7335320;19;154174;-14
2022/01/08 15:33:13;;;;;;;0.80;0.60;;;;;;;;;;7336770;19;153496;-14
2022/01/08 15:35:48;;;;;;;0.60;0.60;;;;;;;;;;7333720;19;161895;-14
2022/01/08 15:38:20;;;;;;;0.40;0.40;;;;;;;;;;7334538;19;162519;-14
2022/01/08 15:40:51;;;;;;;0.57;0.57;;;;;;;;;;7334667;19;154162;-14
2022/01/08 15:43:23;;;;;;;0.60;0.60;;;;;;;;;;7338002;19;153782;-14
2022/01/08 15:45:54;;;;;;;0.60;0.60;;;;;;;;;;7334772;19;162002;-15
2022/01/08 15:48:25;;;;;;;0.40;0.40;;;;;;;;;;7336435;19;162351;-14
2022/01/08 15:50:59;;;;;;;1.85;0.60;;;;;;;;;;7336552;19;155692;-14
2022/01/08 15:53:31;;;;;;;0.75;0.57;;;;;;;;;;7335285;19;153680;-14
2022/01/08 15:56:02;;;;;;;0.55;0.52;;;;;;;;;;7335695;19;161922;-14
2022/01/08 15:58:33;;;;;;;0.40;0.40;;;;;;;;;;7336907;19;162382;-14
2022/01/08 16:01:05;;;;;;;0.75;0.60;;;;;;;;;;7336568;19;154130;-15
2022/01/08 16:03:37;;;;;;;0.60;0.60;;;;;;;;;;7335087;19;153662;-14
2022/01/08 16:06:11;;;;;;;0.50;0.47;;;;;;;;;;7333829;19;162097;-14
2022/01/08 16:08:43;;;;;;;0.40;0.40;;;;;;;;;;7334939;19;162432;-14
2022/01/08 16:11:14;;;;;;;0.50;0.50;;;;;;;;;;7337139;19;153954;-22
2022/01/08 16:13:46;;;;;;;1.17;0.50;;;;;;;;;;7334681;19;153535;-15
2022/01/08 16:16:17;;;;;;;0.40;0.40;;;;;;;;;;7335666;19;161945;-15
2022/01/08 16:18:48;;;;;;;0.50;0.50;;;;;;;;;;7336472;19;162607;-14
2022/01/08 16:21:22;;;;;;;0.45;0.45;;;;;;;;;;7336149;19;153945;-14
2022/01/08 16:23:53;;;;;;;0.70;0.45;;;;;;;;;;7334945;19;153806;-14
2022/01/08 16:26:24;;;;;;;0.40;0.40;;;;;;;;;;7335281;19;162052;-14
2022/01/08 16:28:56;;;;;;;0.43;0.43;;;;;;;;;;7336491;19;162499;-14
2022/01/08 16:31:27;;;;;;;0.47;0.47;;;;;;;;;;7333605;19;153947;-13
2022/01/08 16:33:59;;;;;;;0.75;0.57;;;;;;;;;;7334478;19;153600;-14
2022/01/08 16:36:33;;;;;;;0.40;0.40;;;;;;;;;;7334725;19;161861;-13
2022/01/08 16:39:04;;;;;;;0.40;0.40;;;;;;;;;;7333611;19;162390;-13
2022/01/08 16:41:36;;;;;;;0.40;0.40;;;;;;;;;;7332514;19;154474;-13
2022/01/08 16:44:08;;;;;;;0.53;0.50;;;;;;;;;;7334312;19;153587;-13
2022/01/08 16:46:41;;;;;;;0.63;0.63;;;;;;;;;;7334064;19;161538;-14
2022/01/08 16:49:13;;;;;;;0.40;0.40;;;;;;;;;;7332596;19;162418;-14
2022/01/08 16:51:47;;;;;;;1.55;0.40;;;;;;;;;;7335498;19;154071;-14
2022/01/08 16:54:19;;;;;;;0.40;0.40;;;;;;;;;;7334321;19;153519;-13
2022/01/08 16:56:50;;;;;;;0.45;0.45;;;;;;;;;;7334769;19;162113;-14
2022/01/08 16:59:21;;;;;;;0.40;0.40;;;;;;;;;;7335510;19;162575;-14
2022/01/08 17:01:52;;;;;;;0.75;0.50;;;;;;;;;;7331619;19;154015;-13
2022/01/08 17:04:24;;;;;;;0.60;0.60;;;;;;;;;;7334098;19;153496;-13
2022/01/08 17:06:59;;;;;;;0.65;0.50;;;;;;;;;;7334678;19;162110;-14
2022/01/08 17:09:30;;;;;;;1.10;0.40;;;;;;;;;;7334216;19;162305;-14
2022/01/08 17:12:02;;;;;;;0.88;0.40;;;;;;;;;;7333100;19;154135;-14
2022/01/08 17:14:33;;;;;;;0.77;0.63;;;;;;;;;;7334177;19;153779;-14
2022/01/08 17:17:13;;;;;;;0.50;0.40;;;;;;;;;;7333418;19;161979;-14
2022/01/08 17:19:53;;;;;;;0.65;0.47;;;;;;;;;;7334784;19;162478;-13
2022/01/08 17:22:29;;;;;;;4.22;0.50;;;;;;;;;;7328939;19;154530;-14
2022/01/08 17:25:01;;;;;;;0.47;0.47;;;;;;;;;;7330492;19;153718;-21
2022/01/08 17:27:32;;;;;;;0.57;0.40;;;;;;;;;;7332110;19;162484;-15
2022/01/08 17:30:05;;;;;;;0.95;0.60;;;;;;;;;;7327750;19;162329;-16
2022/01/08 17:32:37;;;;;;;0.40;0.40;;;;;;;;;;7332633;19;154124;-14
2022/01/08 17:35:10;;;;;;;1.38;0.50;;;;;;;;;;7335463;19;153575;-14
2022/01/08 17:37:44;;;;;;;0.38;0.38;;;;;;;;;;7330722;19;161913;-15
2022/01/08 17:40:16;;;;;;;0.57;0.40;;;;;;;;;;7334876;19;162457;-15
2022/01/08 17:42:47;;;;;;;1.20;0.40;;;;;;;;;;7330040;19;154023;-16
2022/01/08 17:45:20;;;;;;;0.38;0.38;;;;;;;;;;7334166;19;153587;-14
2022/01/08 17:47:51;;;;;;;0.50;0.50;;;;;;;;;;7334282;19;162101;-14
2022/01/08 17:50:22;;;;;;;0.73;0.50;;;;;;;;;;7331882;19;162540;-14
2022/01/08 17:52:56;;;;;;;0.40;0.40;;;;;;;;;;7333254;19;154034;-13
2022/01/08 17:55:30;;;;;;;0.50;0.50;;;;;;;;;;7334095;19;153632;-14
2022/01/08 17:58:00;;;;;;;;;;;;;;;;;;7331398;19;162040;-14
2022/01/08 18:00:32;;;;;;;0.68;0.40;;;;;;;;;;7331857;19;162514;-15
2022/01/08 18:03:03;;;;;;;0.47;0.47;;;;;;;;;;7330945;19;153982;-15
2022/01/08 18:05:35;;;;;;;0.40;0.40;;;;;;;;;;7334082;19;153522;-15
2022/01/08 18:08:09;;;;;;;0.40;0.40;;;;;;;;;;7333783;19;161871;-14
2022/01/08 18:10:40;;;;;;;0.40;0.40;;;;;;;;;;7332813;19;162553;-15
2022/01/08 18:13:12;;;;;;;0.30;0.30;;;;;;;;;;7332953;19;153993;-15
2022/01/08 18:15:43;;;;;;;0.55;0.40;;;;;;;;;;7332455;19;153556;-13
2022/01/08 18:18:14;;;;;;;0.40;0.40;;;;;;;;;;7331671;19;161944;-13
2022/01/08 18:20:47;;;;;;;0.52;0.50;;;;;;;;;;7330823;19;162608;-15
2022/01/08 18:23:21;;;;;;;0.45;0.45;;;;;;;;;;7330630;19;154044;-15
2022/01/08 18:25:52;;;;;;;0.82;0.47;;;;;;;;;;7331579;19;153544;-15
2022/01/08 18:28:23;;;;;;;1.92;0.40;;;;;;;;;;7328796;19;161780;-15
2022/01/08 18:30:55;;;;;;;0.30;0.30;;;;;;;;;;7331695;19;162773;-16
2022/01/08 18:33:26;;;;;;;0.80;0.40;;;;;;;;;;7332451;19;153824;-15
2022/01/08 18:35:57;;;;;;;0.77;0.30;;;;;;;;;;7332792;19;153646;-14
2022/01/08 18:38:31;;;;;;;0.40;0.40;;;;;;;;;;7327779;19;161899;-17
2022/01/08 18:41:02;;;;;;;0.75;0.50;;;;;;;;;;7331064;19;162353;-15
2022/01/08 18:43:35;;;;;;;0.47;0.45;;;;;;;;;;7330218;19;153982;-16
2022/01/08 18:46:07;;;;;;;0.32;0.32;;;;;;;;;;7332319;19;153478;-15
2022/01/08 18:48:38;;;;;;;0.40;0.40;;;;;;;;;;7330828;19;162222;-14
2022/01/08 18:51:11;;;;;;;;;;;;;;;;;;7337544;19;162369;-16
2022/01/08 18:53:45;;;;;;;0.40;0.40;;;;;;;;;;7338084;19;154394;-14
2022/01/08 18:56:17;;;;;;;0.75;0.40;;;;;;;;;;7339899;19;153595;-16
2022/01/08 18:58:51;;;;;;;0.30;0.30;;;;;;;;;;7336633;19;162031;-15
2022/01/08 19:01:22;;;;;;;;;;;;;;;;;;7338026;19;162345;-15
2022/01/08 19:03:53;;;;;;;0.40;0.40;;;;;;;;;;7336627;19;154609;-15
2022/01/08 19:06:27;;;;;;;0.50;0.50;;;;;;;;;;7339327;19;153679;-14
2022/01/08 19:09:01;;;;;;;1.25;0.40;;;;;;;;;;7336376;19;161980;-14
2022/01/08 19:11:32;;;;;;;0.70;0.70;;;;;;;;;;7337455;19;162145;-14
2022/01/08 19:14:04;;;;;;;2.88;1.02;;;;;;;;;;7338639;19;153982;-14
2022/01/08 19:16:35;;;;;;;2.80;1.40;;;;;;;;;;7334797;19;153962;-15
2022/01/08 19:19:07;;;;;;;9.27;2.92;;;;;;;;;;7337894;19;162132;-14
2022/01/08 19:21:39;;;;;;;11.88;6.75;;;;;;;;;;7337187;19;162494;-15
2022/01/08 19:24:13;;;;;;;17.83;14.35;;;;;;;;;;7336615;19;154117;-14
2022/01/08 19:26:44;;;;;;;22.42;16.77;;;;;;;;;;7336532;19;153954;-15
2022/01/08 19:29:16;;;;;;;32.10;28.10;;;;;;;;;;7335358;19;162119;-14
2022/01/08 19:31:47;;;;;;;37.78;33.58;;;;;;;;;;7337302;19;162442;-14
2022/01/08 19:34:19;;;;;;;41.05;36.63;;;;;;;;;;7337674;19;154244;-15
2022/01/08 19:36:51;;;;;;;42.23;33.90;;;;;;;;;;7334680;19;153642;-14
2022/01/08 19:39:25;;;;;;;30.45;27.13;;;;;;;;;;7335585;19;162089;-15
2022/01/08 19:41:58;;;;;;;24.90;22.27;;;;;;;;;;7336676;19;162583;-15
2022/01/08 19:44:35;;;;;;;20.63;18.52;;;;;;;;;;7333739;19;154088;-15
2022/01/08 19:47:07;;;;;;;18.98;16.98;;;;;;;;;;7337686;19;153594;-14
2022/01/08 19:49:39;;;;;;;18.23;16.33;;;;;;;;;;7335749;19;162089;-14
2022/01/08 19:52:12;;;;;;;19.60;17.60;;;;;;;;;;7336798;19;162551;-15
2022/01/08 19:54:46;;;;;;;;;;;;;;;;;;7338220;19;154244;-15
2022/01/08 19:57:20;;;;;;;19.08;17.10;;;;;;;;;;7334711;19;153431;-15
2022/01/08 19:59:51;;;;;;;19.80;17.80;;;;;;;;;;7335463;19;162087;-15
2022/01/08 20:02:22;;;;;;;49.63;44.47;;;;;;;;;;7335730;19;162147;-15
2022/01/08 20:04:54;;;;;;;36.70;32.92;;;;;;;;;;7332166;19;153954;-15
2022/01/08 20:07:25;;;;;;;41.95;37.85;;;;;;;;;;7336331;19;153569;-14
2022/01/08 20:09:59;;;;;;;43.35;38.97;;;;;;;;;;7335731;19;161912;-15
2022/01/08 20:12:31;;;;;;;32.40;29.38;;;;;;;;;;7336168;19;162099;-15
2022/01/08 20:15:04;;;;;;;31.70;28.52;;;;;;;;;;7334775;19;154244;-14
2022/01/08 20:17:35;;;;;;;30.52;27.50;;;;;;;;;;7336443;19;153593;-15
2022/01/08 20:20:08;;;;;;;32.08;29.00;;;;;;;;;;7334545;19;161782;-16
2022/01/08 20:22:40;;;;;;;30.70;27.73;;;;;;;;;;7336002;19;162601;-15
2022/01/08 20:25:15;;;;;;;30.98;27.95;;;;;;;;;;7333981;19;154074;-15
2022/01/08 20:27:52;;;;;;;44.50;40.50;;;;;;;;;;7333339;19;153612;-15
2022/01/08 20:30:38;;;;;;;45.97;41.78;;;;;;;;;;7335487;19;162708;-14
2022/01/08 20:33:14;;;;;;;46.08;41.58;;;;;;;;;;7333407;19;162669;-14
2022/01/08 20:35:49;;;;;;;44.28;40.28;;;;;;;;;;7335438;19;154058;-14
2022/01/08 20:38:21;;;;;;;41.90;38.17;;;;;;;;;;7332581;19;153652;-14
2022/01/08 20:40:55;;;;;;;37.90;34.60;;;;;;;;;;7334393;19;161924;-14
2022/01/08 20:43:26;;;;;;;39.55;35.72;;;;;;;;;;7334541;19;162657;-14
2022/01/08 20:45:57;;;;;;;39.42;35.80;;;;;;;;;;7334588;19;154035;-15
2022/01/08 20:48:34;;;;;;;37.38;33.83;;;;;;;;;;7335461;19;153751;-14
2022/01/08 20:51:05;;;;;;;37.58;34.35;;;;;;;;;;7334983;19;162123;-14
2022/01/08 20:53:37;;;;;;;36.83;33.58;;;;;;;;;;7333237;19;163213;-15
2022/01/08 20:56:12;;;;;;;36.47;32.92;;;;;;;;;;7334042;19;154170;-14
2022/01/08 20:58:46;;;;;;;37.35;34.15;;;;;;;;;;7335708;19;153953;-13
2022/01/08 21:01:18;;;;;;;36.83;33.60;;;;;;;;;;7332750;19;161986;-14
2022/01/08 21:03:50;;;;;;;29.55;26.77;;;;;;;;;;7333511;19;162512;-14
2022/01/08 21:06:21;;;;;;;30.23;27.23;;;;;;;;;;7334293;19;154062;-14
2022/01/08 21:08:55;;;;;;;31.52;28.83;;;;;;;;;;7333154;19;153762;-15
2022/01/08 21:11:33;;;;;;;28.75;26.20;;;;;;;;;;7330812;19;161751;-14
2022/01/08 21:14:04;;;;;;;30.98;28.27;;;;;;;;;;7334270;19;162324;-14
2022/01/08 21:16:38;;;;;;;30.80;28.17;;;;;;;;;;7334606;19;154372;-15
2022/01/08 21:19:12;;;;;;;31.15;28.48;;;;;;;;;;7333410;19;153783;-15
2022/01/08 21:21:43;;;;;;;31.10;28.10;;;;;;;;;;7333770;19;161818;-15
2022/01/08 21:24:14;;;;;;;30.42;27.83;;;;;;;;;;7334023;19;162481;-15
2022/01/08 21:26:49;;;;;;;30.60;27.92;;;;;;;;;;7334385;19;153998;-15
2022/01/08 21:29:23;;;;;;;29.40;26.75;;;;;;;;;;7334128;19;153543;-15
2022/01/08 21:31:54;;;;;;;29.33;26.85;;;;;;;;;;7331919;19;162067;-15
2022/01/08 21:34:29;;;;;;;28.80;26.30;;;;;;;;;;7334802;19;162618;-16
2022/01/08 21:37:01;;;;;;;28.50;25.95;;;;;;;;;;7333320;19;154000;-15
2022/01/08 21:39:36;;;;;;;27.13;25.02;;;;;;;;;;7331835;19;153611;-16
2022/01/08 21:42:11;;;;;;;26.55;24.27;;;;;;;;;;7332590;19;161986;-16
2022/01/08 21:44:42;;;;;;;27.85;25.42;;;;;;;;;;7332780;19;162487;-15
2022/01/08 21:47:16;;;;;;;26.98;24.52;;;;;;;;;;7332016;19;154021;-18
2022/01/08 21:49:47;;;;;;;27.67;25.38;;;;;;;;;;7334052;19;153660;-16
2022/01/08 21:52:20;;;;;;;26.73;24.63;;;;;;;;;;7332697;19;162026;-16
2022/01/08 21:54:51;;;;;;;28.30;26.00;;;;;;;;;;7333004;19;162113;-15
2022/01/08 21:57:26;;;;;;;26.40;24.23;;;;;;;;;;7333227;19;153958;-15
2022/01/08 21:59:59;;;;;;;27.38;25.20;;;;;;;;;;7333076;19;153654;-14
2022/01/08 22:02:30;;;;;;;26.48;24.27;;;;;;;;;;7332508;19;162039;-15
2022/01/08 22:05:01;;;;;;;26.75;24.55;;;;;;;;;;7331521;19;162392;-15
2022/01/08 22:07:33;;;;;;;24.90;22.73;;;;;;;;;;7332803;19;154003;-15
2022/01/08 22:10:05;;;;;;;25.33;23.27;;;;;;;;;;7332649;19;153765;-15
2022/01/08 22:12:39;;;;;;;25.35;23.35;;;;;;;;;;7330602;19;161859;-16
2022/01/08 22:15:11;;;;;;;25.77;23.77;;;;;;;;;;7332460;19;162444;-27
2022/01/08 22:17:43;;;;;;;25.70;23.60;;;;;;;;;;7333294;19;153981;-15
2022/01/08 22:20:15;;;;;;;24.23;22.23;;;;;;;;;;7332554;19;153874;-14
2022/01/08 22:22:46;;;;;;;24.73;22.63;;;;;;;;;;7331242;19;161843;-15
2022/01/08 22:25:18;;;;;;;25.27;23.23;;;;;;;;;;7332100;19;162350;-15
2022/01/08 22:27:52;;;;;;;23.02;21.17;;;;;;;;;;7331546;19;154122;-15
2022/01/08 22:30:23;;;;;;;22.70;20.73;;;;;;;;;;7332512;19;154160;-15
2022/01/08 22:32:54;;;;;;;25.45;23.33;;;;;;;;;;7332854;19;161771;-16
2022/01/08 22:35:26;;;;;;;22.67;20.88;;;;;;;;;;7332479;19;162661;-14
2022/01/08 22:38:00;;;;;;;24.77;22.73;;;;;;;;;;7330793;19;154004;-14
2022/01/08 22:40:31;;;;;;;23.27;21.38;;;;;;;;;;7332198;19;153614;-15
2022/01/08 22:43:05;;;;;;;23.50;21.50;;;;;;;;;;7331974;19;161951;-14
2022/01/08 22:45:37;;;;;;;23.60;21.75;;;;;;;;;;7330599;19;162323;-15
2022/01/08 22:48:08;;;;;;;23.38;21.40;;;;;;;;;;7332244;19;154446;-15
2022/01/08 22:50:40;;;;;;;20.30;18.73;;;;;;;;;;7330279;19;153640;-15
2022/01/08 22:53:12;;;;;;;22.27;20.48;;;;;;;;;;7332312;19;162120;-14
2022/01/08 22:55:44;;;;;;;21.52;19.83;;;;;;;;;;7330833;19;162314;-14
2022/01/08 22:58:20;;;;;;;21.87;20.07;;;;;;;;;;7330949;19;154130;-15
2022/01/08 23:00:54;;;;;;;21.63;19.98;;;;;;;;;;7331743;19;153597;-15
2022/01/08 23:03:27;;;;;;;22.20;20.30;;;;;;;;;;7329877;19;161685;-16
2022/01/08 23:06:02;;;;;;;22.30;20.60;;;;;;;;;;7330090;19;162488;-16
2022/01/08 23:08:36;;;;;;;20.15;18.60;;;;;;;;;;7331256;19;154020;-15
2022/01/08 23:11:07;;;;;;;20.40;18.90;;;;;;;;;;7331463;19;153615;-14
2022/01/08 23:13:41;;;;;;;19.73;18.23;;;;;;;;;;7330252;19;162329;-16
2022/01/08 23:16:12;;;;;;;20.70;19.10;;;;;;;;;;7330413;19;162609;-14
2022/01/08 23:18:44;;;;;;;20.73;19.00;;;;;;;;;;7331296;19;153980;-15
2022/01/08 23:21:15;;;;;;;20.90;19.13;;;;;;;;;;7330228;19;153624;-13
2022/01/08 23:23:47;;;;;;;20.63;19.00;;;;;;;;;;7329995;19;161776;-14
2022/01/08 23:26:18;;;;;;;19.05;17.55;;;;;;;;;;7328859;19;162668;-16
2022/01/08 23:28:52;;;;;;;16.83;15.52;;;;;;;;;;7329809;19;154264;-16
2022/01/08 23:31:23;;;;;;;13.77;12.68;;;;;;;;;;7330446;19;153761;-15
2022/01/08 23:33:55;;;;;;;13.25;12.23;;;;;;;;;;7330061;19;161899;-15
2022/01/08 23:36:26;;;;;;;13.35;12.32;;;;;;;;;;7337076;19;162256;-15
2022/01/08 23:38:57;;;;;;;13.35;12.32;;;;;;;;;;7334979;19;153907;-15
2022/01/08 23:41:29;;;;;;;13.20;12.10;;;;;;;;;;7337524;19;154724;-15
2022/01/08 23:44:02;;;;;;;14.73;13.43;;;;;;;;;;7336287;19;161883;-15
2022/01/08 23:46:34;;;;;;;15.02;13.70;;;;;;;;;;7333638;19;162268;-15
2022/01/08 23:49:12;;;;;;;14.95;13.50;;;;;;;;;;7337461;19;154624;-15
2022/01/08 23:51:44;;;;;;;14.90;13.77;;;;;;;;;;7336412;19;153539;-14
2022/01/08 23:54:15;;;;;;;14.10;13.03;;;;;;;;;;7337673;19;161786;-14
2022/01/08 23:56:49;;;;;;;13.80;12.60;;;;;;;;;;7335309;19;162391;-14
2022/01/08 23:59:23;;;;;;;12.57;11.63;;;;;;;;;;7336622;19;154072;-14
